createdAt,value
2023-01-18T00:02:07.222Z,0.90
2023-01-18T00:05:28.773Z,0.80
2023-01-18T00:08:53.376Z,0.80
2023-01-18T00:12:14.937Z,0.80
2023-01-18T00:15:36.917Z,0.80
2023-01-18T00:19:00.128Z,0.80
2023-01-18T00:22:21.665Z,0.80
2023-01-18T00:25:43.219Z,0.80
2023-01-18T00:29:04.813Z,0.80
2023-01-18T00:32:26.352Z,0.80
2023-01-18T00:35:56.080Z,0.80
2023-01-18T00:39:17.650Z,0.80
2023-01-18T00:42:39.345Z,0.80
2023-01-18T00:46:00.942Z,0.80
2023-01-18T00:49:22.768Z,0.80
2023-01-18T00:52:45.642Z,0.90
2023-01-18T00:56:07.613Z,0.80
2023-01-18T00:59:29.144Z,0.80
2023-01-18T01:02:50.713Z,0.80
2023-01-18T01:06:14.178Z,0.80
2023-01-18T01:09:37.091Z,0.80
2023-01-18T01:12:59.067Z,0.80
2023-01-18T01:16:20.896Z,0.80
2023-01-18T01:19:42.442Z,0.90
2023-01-18T01:23:10.344Z,0.90
2023-01-18T01:26:33.207Z,0.80
2023-01-18T01:29:54.745Z,0.80
2023-01-18T01:33:16.580Z,0.80
2023-01-18T01:36:38.124Z,0.80
2023-01-18T01:39:59.669Z,0.80
2023-01-18T01:43:36.108Z,0.80
2023-01-18T01:47:00.052Z,0.80
2023-01-18T01:50:24.425Z,0.90
2023-01-18T01:53:46.899Z,0.90
2023-01-18T01:57:10.299Z,0.90
2023-01-18T02:00:32.683Z,0.80
2023-01-18T02:03:56.113Z,0.80
2023-01-18T02:07:17.670Z,0.80
2023-01-18T02:10:39.410Z,0.80
2023-01-18T02:14:02.556Z,0.80
2023-01-18T02:17:34.146Z,0.90
2023-01-18T02:21:13.730Z,0.90
2023-01-18T02:24:48.498Z,0.90
2023-01-18T02:28:12.817Z,0.90
2023-01-18T02:31:38.249Z,0.90
2023-01-18T02:35:06.755Z,1.00
2023-01-18T02:38:31.554Z,0.90
2023-01-18T02:41:56.317Z,0.90
2023-01-18T02:45:21.983Z,1.00
2023-01-18T02:48:44.096Z,1.00
2023-01-18T02:52:07.089Z,0.90
2023-01-18T02:55:33.575Z,0.90
2023-01-18T02:58:57.701Z,0.90
2023-01-18T03:02:21.595Z,0.90
2023-01-18T03:05:44.098Z,0.90
2023-01-18T03:09:05.695Z,0.90
2023-01-18T03:12:29.148Z,0.90
2023-01-18T03:15:53.642Z,0.80
2023-01-18T03:19:19.043Z,0.80
2023-01-18T03:22:46.132Z,0.80
2023-01-18T03:26:09.348Z,0.80
2023-01-18T03:29:30.931Z,0.80
2023-01-18T03:32:52.475Z,0.80
2023-01-18T03:36:20.430Z,0.80
2023-01-18T03:39:43.753Z,0.80
2023-01-18T03:43:08.573Z,0.80
2023-01-18T03:46:31.734Z,0.90
2023-01-18T03:49:53.336Z,0.90
2023-01-18T03:53:18.212Z,0.80
2023-01-18T03:56:43.183Z,0.80
2023-01-18T04:00:05.583Z,0.80
2023-01-18T04:03:27.116Z,0.80
2023-01-18T04:06:48.696Z,0.80
2023-01-18T04:10:11.848Z,0.80
2023-01-18T04:13:33.389Z,0.80
2023-01-18T04:16:54.944Z,0.80
2023-01-18T04:20:16.528Z,0.80
2023-01-18T04:23:38.076Z,0.80
2023-01-18T04:27:00.966Z,0.70
2023-01-18T04:30:22.514Z,0.70
2023-01-18T04:33:44.081Z,0.70
2023-01-18T04:37:05.882Z,0.70
2023-01-18T04:40:27.560Z,0.80
2023-01-18T04:43:50.576Z,0.70
2023-01-18T04:47:12.126Z,0.70
2023-01-18T04:50:33.660Z,0.70
2023-01-18T04:53:55.313Z,0.70
2023-01-18T04:57:16.854Z,0.70
2023-01-18T05:00:40.112Z,0.70
2023-01-18T05:04:07.844Z,0.70
2023-01-18T05:07:29.548Z,0.60
2023-01-18T05:10:51.540Z,0.60
2023-01-18T05:14:19.187Z,0.70
2023-01-18T05:17:43.066Z,0.70
2023-01-18T05:21:04.735Z,0.70
2023-01-18T05:24:28.891Z,0.70
2023-01-18T05:27:51.372Z,0.70
2023-01-18T05:31:13.400Z,0.70
2023-01-18T05:34:36.324Z,0.70
2023-01-18T05:37:57.881Z,0.70
2023-01-18T05:41:19.458Z,0.70
2023-01-18T05:44:41.000Z,0.70
2023-01-18T05:48:02.576Z,0.60
2023-01-18T05:51:26.174Z,0.60
2023-01-18T05:54:47.705Z,0.60
2023-01-18T05:58:09.267Z,0.60
2023-01-18T06:01:30.884Z,0.50
2023-01-18T06:04:52.447Z,0.50
2023-01-18T06:08:15.571Z,0.50
2023-01-18T06:11:37.122Z,0.40
2023-01-18T06:14:58.689Z,0.40
2023-01-18T06:18:20.393Z,0.40
2023-01-18T06:21:41.924Z,0.40
2023-01-18T06:25:05.410Z,0.40
2023-01-18T06:28:29.667Z,0.30
2023-01-18T06:31:52.129Z,0.30
2023-01-18T06:35:13.854Z,0.30
2023-01-18T06:38:35.426Z,0.30
2023-01-18T06:41:58.332Z,0.40
2023-01-18T06:45:19.959Z,0.40
2023-01-18T06:48:41.484Z,0.40
2023-01-18T06:52:03.040Z,0.40
2023-01-18T06:55:24.607Z,0.40
2023-01-18T06:58:47.523Z,0.40
2023-01-18T07:02:09.603Z,0.50
2023-01-18T07:05:31.201Z,0.50
2023-01-18T07:08:52.742Z,0.40
2023-01-18T07:12:14.280Z,0.40
2023-01-18T07:15:37.159Z,0.40
2023-01-18T07:18:58.706Z,0.40
2023-01-18T07:22:20.300Z,0.40
2023-01-18T07:25:41.991Z,0.40
2023-01-18T07:29:03.543Z,0.40
2023-01-18T07:32:26.429Z,0.40
2023-01-18T07:35:47.969Z,0.40
2023-01-18T07:39:09.685Z,0.40
2023-01-18T07:42:31.258Z,0.50
2023-01-18T07:45:53.529Z,0.50
2023-01-18T07:49:16.443Z,0.50
2023-01-18T07:52:37.992Z,0.60
2023-01-18T07:55:59.938Z,0.60
2023-01-18T07:59:21.492Z,0.60
2023-01-18T08:02:43.238Z,0.70
2023-01-18T08:06:07.075Z,0.70
2023-01-18T08:09:28.671Z,0.80
2023-01-18T08:12:50.188Z,0.80
2023-01-18T08:16:12.529Z,0.80
2023-01-18T08:19:34.715Z,0.80
2023-01-18T08:22:58.617Z,0.80
2023-01-18T08:26:20.344Z,0.90
2023-01-18T08:29:41.901Z,0.90
2023-01-18T08:33:03.551Z,1.00
2023-01-18T08:36:25.674Z,1.00
2023-01-18T08:39:48.538Z,1.10
2023-01-18T08:43:10.479Z,1.10
2023-01-18T08:46:32.074Z,1.20
2023-01-18T08:49:53.632Z,1.20
2023-01-18T08:53:15.334Z,1.20
2023-01-18T08:56:38.242Z,1.20
2023-01-18T08:59:59.781Z,1.30
2023-01-18T09:03:21.402Z,1.20
2023-01-18T09:06:42.952Z,1.20
2023-01-18T09:10:04.850Z,1.20
2023-01-18T09:13:27.771Z,1.10
2023-01-18T09:16:49.550Z,1.10
2023-01-18T09:20:11.464Z,1.00
2023-01-18T09:23:33.162Z,1.00
2023-01-18T09:26:54.708Z,1.00
2023-01-18T09:30:18.022Z,1.10
2023-01-18T09:33:41.184Z,1.10
2023-01-18T09:37:03.994Z,1.10
2023-01-18T09:40:30.654Z,1.40
2023-01-18T09:43:54.424Z,1.60
2023-01-18T09:47:18.653Z,1.70
2023-01-18T09:50:41.364Z,1.60
2023-01-18T09:54:08.010Z,1.50
2023-01-18T09:57:34.316Z,1.60
2023-01-18T10:00:58.602Z,1.70
2023-01-18T10:04:23.780Z,1.70
2023-01-18T10:07:48.495Z,1.90
2023-01-18T10:11:11.389Z,1.80
2023-01-18T10:14:37.559Z,1.80
2023-01-18T10:17:59.108Z,1.80
2023-01-18T10:21:26.304Z,1.80
2023-01-18T10:24:54.304Z,1.80
2023-01-18T10:28:22.448Z,1.70
2023-01-18T10:31:47.765Z,1.90
2023-01-18T10:35:17.678Z,2.00
2023-01-18T10:38:41.135Z,2.10
2023-01-18T10:42:06.112Z,2.20
2023-01-18T10:45:29.482Z,2.00
2023-01-18T10:48:52.026Z,2.00
2023-01-18T10:52:17.154Z,2.00
2023-01-18T10:55:40.104Z,2.00
2023-01-18T10:59:01.822Z,1.90
2023-01-18T11:02:25.239Z,1.80
2023-01-18T11:05:46.810Z,1.90
2023-01-18T11:09:28.860Z,1.80
2023-01-18T11:12:52.847Z,1.80
2023-01-18T11:16:15.970Z,1.90
2023-01-18T11:19:37.893Z,1.90
2023-01-18T11:23:01.285Z,1.90
2023-01-18T11:26:23.762Z,2.10
2023-01-18T11:29:46.799Z,2.10
2023-01-18T11:33:14.210Z,2.20
2023-01-18T11:36:37.696Z,2.20
2023-01-18T11:40:00.587Z,2.20
2023-01-18T11:43:23.944Z,2.10
2023-01-18T11:46:49.560Z,2.00
2023-01-18T11:50:22.012Z,2.00
2023-01-18T11:53:48.650Z,2.10
2023-01-18T11:57:10.809Z,2.00
2023-01-18T12:00:38.781Z,2.00
2023-01-18T12:04:03.819Z,2.00
2023-01-18T12:07:31.545Z,2.10
2023-01-18T12:10:59.735Z,2.00
2023-01-18T12:14:30.663Z,2.10
2023-01-18T12:18:12.059Z,2.10
2023-01-18T12:21:43.274Z,2.40
2023-01-18T12:25:10.541Z,2.40
2023-01-18T12:28:38.452Z,2.40
2023-01-18T12:32:04.267Z,2.30
2023-01-18T12:35:37.180Z,2.20
2023-01-18T12:39:04.961Z,2.20
2023-01-18T12:42:32.045Z,2.30
2023-01-18T12:45:57.883Z,2.30
2023-01-18T12:49:20.608Z,2.50
2023-01-18T12:52:44.999Z,2.60
2023-01-18T12:56:10.076Z,2.70
2023-01-18T12:59:35.130Z,2.40
2023-01-18T13:02:57.169Z,2.20
2023-01-18T13:06:20.357Z,2.10
2023-01-18T13:09:44.656Z,2.10
2023-01-18T13:13:13.524Z,2.20
2023-01-18T13:16:39.478Z,2.30
2023-01-18T13:20:04.087Z,2.20
2023-01-18T13:23:31.266Z,2.10
2023-01-18T13:27:05.848Z,2.00
2023-01-18T13:30:30.722Z,1.80
2023-01-18T13:33:56.137Z,1.80
2023-01-18T13:37:38.476Z,1.80
2023-01-18T13:41:01.524Z,1.70
2023-01-18T13:44:27.225Z,1.60
2023-01-18T13:47:58.207Z,1.70
2023-01-18T13:51:38.552Z,1.70
2023-01-18T13:55:01.525Z,1.70
2023-01-18T13:58:25.197Z,1.70
2023-01-18T14:01:47.532Z,1.70
2023-01-18T14:05:18.729Z,1.80
2023-01-18T14:08:48.113Z,1.90
2023-01-18T14:12:10.279Z,1.80
2023-01-18T14:15:48.148Z,1.90
2023-01-18T14:19:14.012Z,1.80
2023-01-18T14:22:55.628Z,1.70
2023-01-18T14:26:18.982Z,1.60
2023-01-18T14:29:43.677Z,1.50
2023-01-18T14:33:11.841Z,1.50
2023-01-18T14:36:35.648Z,1.40
2023-01-18T14:40:06.946Z,1.50
2023-01-18T14:43:29.679Z,1.50
2023-01-18T14:46:52.429Z,1.50
2023-01-18T14:50:15.023Z,1.40
2023-01-18T14:53:47.572Z,1.40
2023-01-18T14:57:15.504Z,1.40
2023-01-18T15:00:41.961Z,1.50
2023-01-18T15:04:07.647Z,1.40
2023-01-18T15:07:31.399Z,1.40
2023-01-18T15:10:53.268Z,1.40
2023-01-18T15:14:18.226Z,1.40
2023-01-18T15:17:39.868Z,1.30
2023-01-18T15:21:03.028Z,1.30
2023-01-18T15:24:24.585Z,1.30
2023-01-18T15:27:50.371Z,1.20
2023-01-18T15:34:51.487Z,1.10
2023-01-18T15:38:13.570Z,1.10
2023-01-18T15:41:35.784Z,1.10
2023-01-18T15:44:59.138Z,1.00
2023-01-18T15:48:22.989Z,1.00
2023-01-18T15:55:24.010Z,1.00
2023-01-18T15:58:47.156Z,0.90
2023-01-18T16:09:43.697Z,0.90
2023-01-18T16:13:22.109Z,0.90
2023-01-18T16:16:44.457Z,0.90
2023-01-18T16:20:16.714Z,0.90
2023-01-18T16:23:41.603Z,0.80
2023-01-18T16:27:11.255Z,0.80
2023-01-18T16:30:35.516Z,0.80
2023-01-18T16:33:57.170Z,0.80
2023-01-18T16:37:18.936Z,0.80
2023-01-18T16:40:42.882Z,0.80
2023-01-18T16:44:05.639Z,0.80
2023-01-18T16:47:28.749Z,0.80
2023-01-18T16:50:50.829Z,0.80
2023-01-18T16:54:12.428Z,0.80
2023-01-18T16:57:34.059Z,0.80
2023-01-18T17:00:58.504Z,0.80
2023-01-18T17:04:21.533Z,0.80
2023-01-18T17:07:43.593Z,0.80
2023-01-18T17:11:05.311Z,0.80
2023-01-18T17:14:26.976Z,0.80
2023-01-18T17:17:49.053Z,0.80
2023-01-18T17:21:12.642Z,0.80
2023-01-18T17:24:34.505Z,0.80
2023-01-18T17:27:56.555Z,0.80
2023-01-18T17:31:18.143Z,0.80
2023-01-18T17:34:40.096Z,0.80
2023-01-18T17:38:06.260Z,0.80
2023-01-18T17:41:33.432Z,0.70
2023-01-18T17:44:55.286Z,0.70
2023-01-18T17:48:16.927Z,0.70
2023-01-18T17:51:38.492Z,0.70
2023-01-18T17:55:01.545Z,0.70
2023-01-18T17:58:23.154Z,0.70
2023-01-18T18:01:44.888Z,0.70
2023-01-18T18:05:07.156Z,0.70
2023-01-18T18:08:28.729Z,0.70
2023-01-18T18:11:51.858Z,0.70
2023-01-18T18:15:13.510Z,0.70
2023-01-18T18:18:35.185Z,0.70
2023-01-18T18:21:56.927Z,0.70
2023-01-18T18:25:18.764Z,0.70
2023-01-18T18:28:41.808Z,0.70
2023-01-18T18:32:03.591Z,0.70
2023-01-18T18:35:26.405Z,0.70
2023-01-18T18:38:48.255Z,0.70
2023-01-18T18:42:09.827Z,0.70
2023-01-18T18:45:32.838Z,0.70
2023-01-18T18:48:54.425Z,0.70
2023-01-18T18:52:16.046Z,0.70
2023-01-18T18:55:37.631Z,0.60
2023-01-18T18:59:08.430Z,0.70
2023-01-18T19:02:31.545Z,0.60
2023-01-18T19:05:53.131Z,0.60
2023-01-18T19:09:14.714Z,0.60
2023-01-18T19:12:36.309Z,0.50
2023-01-18T19:15:58.512Z,0.50
2023-01-18T19:19:21.992Z,0.40
2023-01-18T19:22:43.569Z,0.40
2023-01-18T19:26:05.279Z,0.30
2023-01-18T19:29:26.897Z,0.20
2023-01-18T19:32:49.097Z,0.20
2023-01-18T19:36:13.223Z,0.10
2023-01-18T19:39:35.136Z,0.00
2023-01-18T19:42:56.797Z,-0.10
2023-01-18T19:46:18.670Z,-0.10
2023-01-18T19:49:40.589Z,-0.20
2023-01-18T19:53:03.834Z,-0.30
2023-01-18T19:56:25.735Z,-0.40
2023-01-18T19:59:47.502Z,-0.50
2023-01-18T20:03:11.965Z,-0.50
2023-01-18T20:06:33.925Z,-0.50
2023-01-18T20:09:57.042Z,-0.50
2023-01-18T20:13:18.610Z,-0.60
2023-01-18T20:16:40.573Z,-0.60
2023-01-18T20:20:02.174Z,-0.60
2023-01-18T20:23:23.760Z,-0.50
2023-01-18T20:26:46.715Z,-0.50
2023-01-18T20:30:09.186Z,-0.60
2023-01-18T20:33:30.857Z,-0.60
2023-01-18T20:36:52.428Z,-0.60
2023-01-18T20:40:14.213Z,-0.70
2023-01-18T20:43:37.179Z,-0.70
2023-01-18T20:46:58.729Z,-0.70
2023-01-18T20:50:20.401Z,-0.70
2023-01-18T20:53:42.050Z,-0.70
2023-01-18T20:57:03.630Z,-0.60
2023-01-18T21:00:26.554Z,-0.60
2023-01-18T21:03:52.170Z,-0.60
2023-01-18T21:07:13.778Z,-0.60
2023-01-18T21:10:35.346Z,-0.50
2023-01-18T21:13:57.441Z,-0.50
2023-01-18T21:17:20.382Z,-0.50
2023-01-18T21:20:41.962Z,-0.60
2023-01-18T21:24:03.630Z,-0.60
2023-01-18T21:27:27.188Z,-0.60
2023-01-18T21:30:49.889Z,-0.60
2023-01-18T21:34:12.838Z,-0.60
2023-01-18T21:37:34.413Z,-0.60
2023-01-18T21:40:56.029Z,-0.60
2023-01-18T21:44:17.649Z,-0.70
2023-01-18T21:47:39.267Z,-0.80
2023-01-18T21:51:02.806Z,-0.90
2023-01-18T21:54:24.523Z,-1.00
2023-01-18T21:57:46.211Z,-1.10
2023-01-18T22:01:11.096Z,-1.10
2023-01-18T22:04:32.729Z,-1.20
2023-01-18T22:07:55.653Z,-1.30
2023-01-18T22:11:17.397Z,-1.40
2023-01-18T22:14:39.025Z,-1.40
2023-01-18T22:18:01.082Z,-1.40
2023-01-18T22:21:22.927Z,-1.40
2023-01-18T22:24:45.829Z,-1.40
2023-01-18T22:28:07.398Z,-1.50
2023-01-18T22:31:28.980Z,-1.50
2023-01-18T22:34:50.559Z,-1.50
2023-01-18T22:38:12.095Z,-1.50
2023-01-18T22:41:35.123Z,-1.50
2023-01-18T22:44:56.731Z,-1.50
2023-01-18T22:48:18.348Z,-1.50
2023-01-18T22:51:39.942Z,-1.60
2023-01-18T22:55:01.532Z,-1.50
2023-01-18T22:58:24.488Z,-1.60
2023-01-18T23:01:46.084Z,-1.60
2023-01-18T23:05:07.816Z,-1.60
2023-01-18T23:08:29.892Z,-1.60
2023-01-18T23:11:51.478Z,-1.60
2023-01-18T23:15:14.415Z,-1.60
2023-01-18T23:18:36.229Z,-1.60
2023-01-18T23:21:58.030Z,-1.60
2023-01-18T23:25:19.912Z,-1.60
2023-01-18T23:28:41.653Z,-1.70
2023-01-18T23:32:05.481Z,-1.60
2023-01-18T23:35:27.184Z,-1.70
2023-01-18T23:38:49.213Z,-1.60
2023-01-18T23:42:11.224Z,-1.70
2023-01-18T23:45:32.916Z,-1.70
2023-01-18T23:48:57.648Z,-1.70
2023-01-18T23:52:19.551Z,-1.70
2023-01-18T23:55:41.141Z,-1.80
2023-01-18T23:59:02.746Z,-1.70
